VLSK

Savannakhet Airport

Lao People’s Democratic Republic
TAF VLSK 141700Z 1418/1518 09004KT 8000 SCT020 BKN100 TEMPO 1418/1422 3000 BR SCT040 BKN100
Issued Valid From Valid To
Dec-14 @ 17:00 UTC
(6 hours ago)
Dec-14 @ 18:00 UTC
(5 hours ago)
Dec-15 @ 18:00 UTC
(in 19 hours)
Dec-14 @ 18:00 to Dec-15 @ 18:00
TAF VLSK 141700Z 1418/1518 09004KT 8000 SCT020 BKN100
Wind Visibility Clouds
90° at 4 knots 7,998 meters
  • Scattered at 2,000' AGL
  • Broken at 10,000' AGL
Expired Click to View Dec-14 @ 18:00 to Dec-14 @ 22:00
TEMPO 1418/1422 3000 BR SCT040 BKN100
Visibility Clouds Conditions
2,993 meters
  • Scattered at 4,000' AGL
  • Broken at 10,000' AGL
  • Mist
TAF VLSK 141700Z 1418/1518 09004KT 8000 SCT020 BKN100 TEMPO 1418/1422 3000 BR SCT040 BKN100
Issued Dec-14 @ 17:00 UTC
(6 hours ago)
Valid From Dec-14 @ 18:00 UTC
(5 hours ago)
Valid To Dec-15 @ 18:00 UTC
(in 19 hours)
Dec-14 @ 18:00 - Dec-15 @ 18:00
Wind Visibility
90° at 4 knots 7,998 meters
Clouds
  • Scattered at 2,000' AGL
  • Broken at 10,000' AGL
Dec-14 @ 18:00 - Dec-14 @ 22:00
Clouds
  • Scattered at 4,000' AGL
  • Broken at 10,000' AGL
Conditions
  • Mist